createdAt,value
2022-08-05T00:00:46.294Z,3.42
2022-08-05T00:02:21.538Z,3.72
2022-08-05T00:06:06.702Z,3.53
2022-08-05T00:07:59.390Z,3.50
2022-08-05T00:09:19.726Z,3.17
2022-08-05T00:10:53.340Z,3.28
2022-08-05T00:13:59.482Z,3.40
2022-08-05T00:15:55.149Z,3.33
2022-08-05T00:17:25.901Z,3.40
2022-08-05T00:20:32.087Z,3.67
2022-08-05T00:22:05.987Z,3.25
2022-08-05T00:23:46.408Z,3.22
2022-08-05T00:25:26.214Z,3.33
2022-08-05T00:27:18.574Z,2.80
2022-08-05T00:28:52.956Z,3.58
2022-08-05T00:30:29.081Z,3.55
2022-08-05T00:32:13.530Z,3.60
2022-08-05T00:34:57.053Z,3.63
2022-08-05T00:35:47.719Z,3.53
2022-08-05T00:37:21.058Z,3.58
2022-08-05T00:40:33.822Z,3.88
2022-08-05T00:42:07.119Z,3.88
2022-08-05T00:43:47.293Z,3.50
2022-08-05T00:45:38.082Z,3.90
2022-08-05T00:47:16.441Z,3.55
2022-08-05T00:48:50.586Z,3.90
2022-08-05T00:50:25.457Z,3.67
2022-08-05T00:51:58.699Z,3.80
2022-08-05T00:55:42.570Z,3.50
2022-08-05T00:57:16.684Z,3.63
2022-08-05T00:58:54.252Z,3.70
2022-08-05T01:00:29.590Z,3.65
2022-08-05T01:02:02.618Z,3.75
2022-08-05T01:03:35.861Z,4.00
2022-08-05T01:05:10.180Z,4.03
2022-08-05T01:06:43.763Z,3.80
2022-08-05T01:08:40.069Z,3.83
2022-08-05T01:46:42.867Z,3.50
2022-08-05T01:48:16.719Z,3.60
2022-08-05T01:50:02.267Z,3.55
2022-08-05T01:51:37.861Z,3.40
2022-08-05T01:53:13.962Z,3.40
2022-08-05T01:54:52.864Z,3.53
2022-08-05T01:58:09.266Z,3.60
2022-08-05T01:58:30.011Z,3.50
2022-08-05T02:00:15.076Z,3.40
2022-08-05T02:01:49.325Z,3.38
2022-08-05T02:03:31.958Z,3.78
2022-08-05T02:05:12.420Z,3.70
2022-08-05T02:06:45.598Z,3.58
2022-08-05T02:08:31.097Z,4.10
2022-08-05T02:11:52.550Z,3.60
2022-08-05T02:13:36.355Z,3.30
2022-08-05T02:15:14.919Z,3.58
2022-08-05T02:16:54.461Z,3.80
2022-08-05T02:18:37.243Z,3.75
2022-08-05T02:20:20.570Z,3.58
2022-08-05T02:22:00.240Z,3.85
2022-08-05T02:23:37.198Z,4.00
2022-08-05T02:28:56.400Z,4.35
2022-08-05T02:36:20.418Z,3.63
2022-08-05T02:45:14.065Z,3.72
2022-08-05T02:52:47.971Z,3.60
2022-08-05T02:54:34.765Z,3.80
2022-08-05T03:23:01.938Z,4.05
2022-08-05T03:24:37.427Z,3.95
2022-08-05T03:26:31.828Z,4.68
2022-08-05T03:28:06.740Z,4.40
2022-08-05T03:29:45.596Z,5.03
2022-08-05T03:31:55.828Z,4.63
2022-08-05T03:33:42.302Z,5.63
2022-08-05T03:35:22.928Z,4.30
2022-08-05T03:36:55.978Z,3.97
2022-08-05T03:40:11.715Z,3.90
2022-08-05T03:41:45.472Z,4.07
2022-08-05T03:44:08.930Z,4.10
2022-08-05T03:45:21.564Z,5.60
2022-08-05T03:46:55.943Z,5.45
2022-08-05T03:48:29.726Z,4.22
2022-08-05T03:50:02.909Z,4.10
2022-08-05T03:55:51.034Z,4.10
2022-08-05T03:56:05.268Z,4.10
2022-08-05T03:57:41.680Z,4.20
2022-08-05T03:59:20.270Z,3.95
2022-08-05T04:00:55.709Z,4.00
2022-08-05T04:02:38.956Z,4.38
2022-08-05T04:04:21.361Z,4.40
2022-08-05T04:05:55.128Z,3.95
2022-08-05T04:07:30.846Z,4.03
2022-08-05T04:09:08.677Z,4.40
2022-08-05T04:10:42.758Z,4.35
2022-08-05T04:12:24.553Z,3.95
2022-08-05T04:13:57.966Z,4.28
2022-08-05T04:15:36.423Z,4.50
2022-08-05T04:17:10.194Z,4.20
2022-08-05T04:18:47.606Z,4.05
2022-08-05T04:20:27.615Z,4.30
2022-08-05T04:22:08.930Z,5.00
2022-08-05T04:24:05.256Z,4.30
2022-08-05T04:25:57.349Z,3.90
2022-08-05T04:27:43.620Z,5.28
2022-08-05T04:29:27.516Z,3.83
2022-08-05T04:31:01.660Z,4.07
2022-08-05T04:32:41.588Z,4.00
2022-08-05T04:34:18.239Z,3.90
2022-08-05T04:36:10.980Z,4.07
2022-08-05T04:38:01.232Z,3.80
2022-08-05T04:39:40.094Z,4.30
2022-08-05T04:43:16.676Z,3.90
2022-08-05T04:44:49.929Z,3.70
2022-08-05T04:46:28.328Z,4.38
2022-08-05T04:48:05.815Z,4.38
2022-08-05T04:50:02.619Z,3.92
2022-08-05T04:51:32.955Z,7.13
2022-08-05T04:53:08.534Z,4.75
2022-08-05T04:54:42.606Z,4.55
2022-08-05T04:56:34.489Z,4.15
2022-08-05T04:58:12.950Z,4.47
2022-08-05T04:59:48.151Z,4.95
2022-08-05T05:02:04.131Z,4.75
2022-08-05T05:03:16.802Z,5.53
2022-08-05T05:05:01.940Z,4.40
2022-08-05T05:06:44.487Z,4.80
2022-08-05T05:08:30.256Z,5.20
2022-08-05T05:10:06.536Z,5.28
2022-08-05T05:11:42.148Z,5.30
2022-08-05T05:13:32.228Z,6.20
2022-08-05T05:15:17.550Z,5.30
2022-08-05T05:17:09.727Z,5.25
2022-08-05T05:19:09.004Z,5.70
2022-08-05T05:20:37.502Z,5.75
2022-08-05T05:22:24.364Z,5.13
2022-08-05T05:24:02.715Z,5.93
2022-08-05T05:25:43.046Z,5.70
2022-08-05T05:27:21.160Z,5.50
2022-08-05T05:28:56.040Z,5.63
2022-08-05T05:30:33.350Z,5.88
2022-08-05T05:32:07.893Z,5.60
2022-08-05T05:33:59.678Z,6.22
2022-08-05T05:35:37.992Z,5.28
2022-08-05T05:37:14.941Z,5.35
2022-08-05T05:38:48.796Z,5.20
2022-08-05T05:40:26.054Z,5.10
2022-08-05T05:41:59.855Z,4.35
2022-08-05T05:43:57.268Z,4.47
2022-08-05T05:45:28.054Z,4.20
2022-08-05T05:47:04.639Z,3.80
2022-08-05T05:48:48.341Z,4.00
2022-08-05T05:50:22.055Z,3.58
2022-08-05T05:51:59.079Z,3.63
2022-08-05T05:53:32.027Z,3.78
2022-08-05T05:55:25.035Z,3.83
2022-08-05T05:57:19.261Z,4.00
2022-08-05T05:58:52.644Z,3.80
2022-08-05T06:00:27.733Z,3.55
2022-08-05T06:02:05.002Z,3.97
2022-08-05T06:04:00.719Z,3.85
2022-08-05T06:05:34.170Z,3.90
2022-08-05T06:07:07.485Z,4.07
2022-08-05T06:08:44.371Z,3.80
2022-08-05T06:10:22.400Z,4.05
2022-08-05T06:12:01.097Z,3.97
2022-08-05T06:13:40.930Z,3.97
2022-08-05T06:16:30.953Z,4.10
2022-08-05T06:17:30.883Z,4.05
2022-08-05T06:19:05.898Z,4.38
2022-08-05T06:20:41.497Z,4.22
2022-08-05T06:22:25.881Z,4.32
2022-08-05T06:23:59.086Z,4.00
2022-08-05T06:26:12.355Z,4.40
2022-08-05T06:28:12.749Z,3.93
2022-08-05T06:29:25.349Z,4.10
2022-08-05T06:31:17.700Z,3.85
2022-08-05T06:32:51.623Z,3.67
2022-08-05T06:34:24.238Z,4.00
2022-08-05T06:36:07.748Z,3.90
2022-08-05T06:37:58.381Z,3.50
2022-08-05T06:39:32.582Z,3.65
2022-08-05T06:42:41.446Z,3.90
2022-08-05T06:48:36.841Z,3.50
2022-08-05T06:50:01.543Z,3.75
2022-08-05T06:51:30.728Z,3.47
2022-08-05T06:53:19.511Z,3.55
2022-08-05T06:54:56.108Z,3.60
2022-08-05T06:56:29.575Z,3.47
2022-08-05T06:58:29.657Z,3.53
2022-08-05T06:59:58.335Z,3.60
2022-08-05T07:01:32.237Z,3.40
2022-08-05T07:03:07.546Z,3.35
2022-08-05T07:04:42.965Z,3.53
2022-08-05T07:06:20.780Z,3.40
2022-08-05T07:07:53.864Z,3.28
2022-08-05T07:09:32.359Z,3.65
2022-08-05T07:13:06.604Z,3.40
2022-08-05T07:15:00.642Z,3.22
2022-08-05T07:17:56.273Z,3.25
2022-08-05T07:18:47.760Z,3.55
2022-08-05T07:20:38.716Z,3.33
2022-08-05T07:22:12.428Z,3.13
2022-08-05T07:23:49.951Z,3.30
2022-08-05T07:25:55.983Z,3.47
2022-08-05T07:27:17.371Z,3.10
2022-08-05T07:28:51.744Z,3.00
2022-08-05T07:30:31.971Z,3.08
2022-08-05T07:32:07.553Z,2.80
2022-08-05T07:33:40.833Z,3.03
2022-08-05T07:35:55.935Z,3.20
2022-08-05T07:37:11.524Z,2.75
2022-08-05T07:38:55.287Z,2.72
2022-08-05T07:40:32.908Z,2.67
2022-08-05T07:42:15.297Z,2.88
2022-08-05T07:43:49.384Z,2.63
2022-08-05T07:45:57.788Z,2.72
2022-08-05T07:47:16.599Z,2.72
2022-08-05T07:49:02.384Z,2.50
2022-08-05T07:50:39.430Z,2.40
2022-08-05T07:52:15.178Z,2.50
2022-08-05T07:53:51.737Z,2.55
2022-08-05T07:55:44.215Z,2.70
2022-08-05T07:57:51.169Z,2.80
2022-08-05T07:59:13.032Z,2.60
2022-08-05T08:00:47.810Z,2.63
2022-08-05T08:02:26.854Z,2.42
2022-08-05T08:04:04.023Z,2.70
2022-08-05T08:05:39.820Z,2.60
2022-08-05T08:07:14.171Z,2.58
2022-08-05T08:08:48.929Z,2.70
2022-08-05T08:10:23.015Z,3.00
2022-08-05T08:12:06.182Z,2.60
2022-08-05T08:13:49.540Z,2.70
2022-08-05T08:16:33.271Z,2.70
2022-08-05T08:17:27.550Z,2.55
2022-08-05T08:19:01.213Z,2.78
2022-08-05T08:21:01.054Z,2.58
2022-08-05T08:22:30.595Z,2.70
2022-08-05T08:24:09.505Z,3.00
2022-08-05T08:26:02.419Z,2.60
2022-08-05T08:27:44.799Z,2.72
2022-08-05T08:29:45.146Z,2.70
2022-08-05T08:31:14.922Z,2.78
2022-08-05T08:32:49.654Z,2.85
2022-08-05T08:34:30.379Z,2.63
2022-08-05T08:36:38.235Z,2.90
2022-08-05T08:38:02.124Z,2.88
2022-08-05T08:39:37.773Z,2.80
2022-08-05T08:41:15.146Z,2.60
2022-08-05T08:42:54.644Z,2.90
2022-08-05T08:45:23.263Z,3.03
2022-08-05T08:46:29.294Z,2.80
2022-08-05T08:48:23.110Z,2.70
2022-08-05T08:50:23.370Z,2.72
2022-08-05T08:52:04.275Z,2.72
2022-08-05T08:53:45.112Z,2.65
2022-08-05T08:56:01.652Z,2.72
2022-08-05T08:57:13.380Z,3.03
2022-08-05T08:58:48.823Z,2.60
2022-08-05T09:00:22.866Z,2.70
2022-08-05T09:01:57.402Z,2.95
2022-08-05T09:03:40.361Z,2.55
2022-08-05T09:05:16.253Z,2.90
2022-08-05T09:06:51.136Z,2.50
2022-08-05T09:08:27.258Z,2.58
2022-08-05T09:10:02.076Z,2.45
2022-08-05T09:11:51.322Z,2.70
2022-08-05T09:13:31.520Z,2.75
2022-08-05T09:15:06.817Z,2.42
2022-08-05T09:16:40.376Z,2.40
2022-08-05T09:18:22.065Z,2.35
2022-08-05T09:20:02.807Z,2.70
2022-08-05T09:22:22.226Z,2.45
2022-08-05T09:23:37.236Z,2.72
2022-08-05T09:25:24.125Z,2.63
2022-08-05T09:28:03.800Z,2.85
2022-08-05T09:29:44.752Z,2.35
2022-08-05T09:31:44.054Z,2.53
2022-08-05T09:33:15.349Z,2.65
2022-08-05T09:34:51.744Z,2.60
2022-08-05T09:36:27.318Z,2.75
2022-08-05T09:38:17.119Z,2.67
2022-08-05T09:39:55.978Z,2.47
2022-08-05T09:41:33.227Z,2.40
2022-08-05T09:43:40.549Z,2.83
2022-08-05T09:45:17.870Z,2.40
2022-08-05T09:47:15.380Z,2.10
2022-08-05T09:49:06.561Z,2.50
2022-08-05T09:50:44.136Z,2.35
2022-08-05T09:52:23.031Z,2.58
2022-08-05T09:54:00.310Z,2.53
2022-08-05T09:55:56.262Z,2.13
2022-08-05T09:57:39.683Z,2.20
2022-08-05T09:59:17.569Z,2.25
2022-08-05T10:00:59.195Z,2.42
2022-08-05T10:02:38.681Z,2.53
2022-08-05T10:04:16.164Z,2.47
2022-08-05T10:06:07.523Z,2.30
2022-08-05T10:08:11.098Z,2.40
2022-08-05T10:10:14.153Z,2.50
2022-08-05T10:11:48.258Z,2.10
2022-08-05T10:13:45.817Z,2.10
2022-08-05T10:15:23.818Z,2.13
2022-08-05T10:17:39.791Z,1.95
2022-08-05T10:19:08.538Z,2.03
2022-08-05T10:20:47.730Z,2.20
2022-08-05T10:22:30.040Z,1.83
2022-08-05T10:24:11.034Z,1.90
2022-08-05T10:25:44.273Z,1.90
2022-08-05T10:27:17.779Z,2.22
2022-08-05T10:29:00.904Z,2.85
2022-08-05T10:31:20.393Z,2.42
2022-08-05T10:32:54.508Z,1.80
2022-08-05T10:34:25.940Z,2.35
2022-08-05T10:36:05.107Z,2.05
2022-08-05T10:37:45.186Z,1.90
2022-08-05T10:40:04.215Z,2.20
2022-08-05T10:41:46.688Z,2.05
2022-08-05T10:43:35.842Z,2.30
2022-08-05T10:45:24.033Z,2.03
2022-08-05T10:47:26.817Z,2.30
2022-08-05T10:49:10.413Z,2.25
2022-08-05T10:51:00.904Z,2.72
2022-08-05T10:52:47.044Z,2.15
2022-08-05T10:54:28.444Z,2.10
2022-08-05T10:56:21.511Z,2.50
2022-08-05T10:58:09.670Z,2.33
2022-08-05T11:00:03.553Z,1.75
2022-08-05T11:01:54.810Z,1.73
2022-08-05T11:03:36.338Z,1.80
2022-08-05T11:05:11.857Z,1.60
2022-08-05T11:07:11.887Z,1.90
2022-08-05T11:09:16.421Z,1.70
2022-08-05T11:11:01.121Z,1.80
2022-08-05T11:12:54.160Z,1.60
2022-08-05T11:15:11.874Z,1.75
2022-08-05T11:16:47.928Z,1.85
2022-08-05T11:18:30.135Z,1.77
2022-08-05T11:20:11.500Z,1.70
2022-08-05T11:21:50.759Z,1.70
2022-08-05T11:23:33.239Z,1.80
2022-08-05T11:26:04.742Z,1.80
2022-08-05T11:27:51.014Z,2.08
2022-08-05T11:29:40.253Z,2.30
2022-08-05T11:31:57.341Z,2.42
2022-08-05T11:36:07.780Z,2.35
2022-08-05T11:38:28.305Z,2.40
2022-08-05T11:40:03.684Z,1.75
2022-08-05T11:42:01.069Z,1.80
2022-08-05T11:44:04.368Z,1.92
2022-08-05T11:46:15.369Z,2.00
2022-08-05T11:47:49.294Z,1.80
2022-08-05T11:49:18.814Z,1.90
2022-08-05T11:50:52.179Z,2.08
2022-08-05T11:52:29.171Z,1.90
2022-08-05T11:54:03.106Z,1.98
2022-08-05T11:55:36.767Z,1.75
2022-08-05T11:57:24.072Z,1.88
2022-08-05T11:58:58.706Z,2.17
2022-08-05T12:00:32.600Z,2.00
2022-08-05T12:02:23.734Z,2.22
2022-08-05T12:03:58.133Z,2.10
2022-08-05T12:05:36.228Z,2.25
2022-08-05T12:07:15.768Z,1.80
2022-08-05T12:08:51.580Z,2.10
2022-08-05T12:10:38.638Z,2.10
2022-08-05T12:12:23.619Z,2.42
2022-08-05T12:14:04.394Z,2.13
2022-08-05T12:15:38.449Z,2.10
2022-08-05T12:18:02.985Z,1.95
2022-08-05T12:19:09.962Z,2.25
2022-08-05T12:21:15.776Z,1.80
2022-08-05T12:22:51.775Z,1.92
2022-08-05T12:24:24.955Z,1.98
2022-08-05T12:25:57.959Z,2.50
2022-08-05T12:27:33.252Z,1.88
2022-08-05T12:29:09.847Z,2.17
2022-08-05T12:30:51.171Z,2.30
2022-08-05T12:32:24.806Z,2.10
2022-08-05T12:33:58.470Z,1.90
2022-08-05T12:35:39.386Z,1.95
2022-08-05T12:37:17.014Z,1.80
2022-08-05T12:39:06.922Z,1.95
2022-08-05T12:40:43.622Z,1.98
2022-08-05T12:42:18.733Z,2.30
2022-08-05T12:43:54.288Z,2.00
2022-08-05T12:45:36.954Z,1.80
2022-08-05T12:47:31.084Z,1.60
2022-08-05T12:49:13.155Z,1.88
2022-08-05T12:51:21.883Z,1.90
2022-08-05T12:53:06.922Z,1.80
2022-08-05T12:54:42.687Z,2.70
2022-08-05T12:56:34.460Z,2.30
2022-08-05T12:58:50.572Z,2.00
2022-08-05T13:01:57.838Z,2.33
2022-08-05T13:02:07.195Z,2.10
2022-08-05T13:03:42.877Z,2.80
2022-08-05T13:05:18.629Z,2.10
2022-08-05T13:06:54.086Z,2.13
2022-08-05T13:08:30.141Z,2.10
2022-08-05T13:10:04.607Z,2.10
2022-08-05T13:12:02.039Z,2.20
2022-08-05T13:14:05.602Z,1.95
2022-08-05T13:15:41.829Z,1.95
2022-08-05T13:17:32.064Z,2.10
2022-08-05T13:19:16.057Z,2.13
2022-08-05T13:20:49.933Z,2.58
2022-08-05T13:22:28.068Z,2.00
2022-08-05T13:24:04.437Z,2.03
2022-08-05T13:25:52.556Z,2.30
2022-08-05T13:27:37.886Z,2.10
2022-08-05T13:29:11.993Z,2.10
2022-08-05T13:30:53.482Z,3.97
2022-08-05T13:32:29.295Z,2.08
2022-08-05T13:34:22.397Z,3.30
2022-08-05T13:36:02.019Z,2.35
2022-08-05T13:37:38.273Z,2.60
2022-08-05T13:40:14.334Z,2.40
2022-08-05T13:41:07.902Z,2.28
2022-08-05T13:42:41.170Z,2.40
2022-08-05T13:44:14.293Z,2.58
2022-08-05T13:45:47.449Z,2.40
2022-08-05T13:47:35.029Z,2.28
2022-08-05T13:49:11.539Z,2.40
2022-08-05T13:50:44.928Z,2.50
2022-08-05T13:52:29.216Z,2.40
2022-08-05T13:54:02.600Z,2.22
2022-08-05T13:55:40.993Z,2.30
2022-08-05T13:57:17.737Z,2.40
2022-08-05T13:58:53.442Z,2.40
2022-08-05T14:00:27.950Z,2.25
2022-08-05T14:02:03.717Z,2.30
2022-08-05T14:03:36.652Z,2.53
2022-08-05T14:05:11.516Z,1.95
2022-08-05T14:08:32.683Z,2.40
2022-08-05T14:10:08.420Z,2.20
2022-08-05T14:12:04.282Z,2.85
2022-08-05T14:13:35.902Z,2.08
2022-08-05T14:16:08.645Z,2.10
2022-08-05T14:17:03.328Z,2.65
2022-08-05T14:18:37.934Z,2.03
2022-08-05T14:20:12.055Z,2.25
2022-08-05T14:22:08.737Z,2.60
2022-08-05T14:23:43.501Z,2.25
2022-08-05T14:25:19.025Z,3.65
2022-08-05T14:27:15.501Z,2.08
2022-08-05T14:28:52.270Z,3.10
2022-08-05T14:30:26.603Z,3.45
2022-08-05T14:32:16.006Z,3.10
2022-08-05T14:34:00.115Z,2.20
2022-08-05T14:35:37.247Z,2.35
2022-08-05T14:37:23.772Z,2.25
2022-08-05T14:39:23.432Z,2.05
2022-08-05T14:40:56.872Z,2.45
2022-08-05T14:42:31.426Z,2.30
2022-08-05T14:44:10.009Z,2.00
2022-08-05T14:45:53.817Z,2.15
2022-08-05T14:48:04.857Z,2.00
2022-08-05T14:49:19.714Z,2.40
2022-08-05T14:50:53.508Z,2.30
2022-08-05T14:52:51.674Z,2.28
2022-08-05T14:54:30.113Z,2.30
2022-08-05T14:56:07.008Z,2.10
2022-08-05T14:57:54.234Z,2.50
2022-08-05T14:59:35.715Z,2.10
2022-08-05T15:01:15.497Z,2.08
2022-08-05T15:02:48.921Z,2.00
2022-08-05T15:04:24.177Z,2.05
2022-08-05T15:06:07.877Z,2.00
2022-08-05T15:08:09.084Z,2.25
2022-08-05T15:09:54.230Z,1.98
2022-08-05T15:11:52.942Z,2.10
2022-08-05T15:13:28.467Z,1.77
2022-08-05T15:15:01.738Z,1.85
2022-08-05T15:16:34.684Z,1.88
2022-08-05T15:18:08.640Z,2.20
2022-08-05T15:19:41.552Z,1.80
2022-08-05T15:21:22.152Z,2.10
2022-08-05T15:22:57.326Z,2.20
2022-08-05T15:24:30.329Z,2.35
2022-08-05T15:26:04.120Z,2.45
2022-08-05T15:27:37.134Z,2.40
2022-08-05T15:29:17.177Z,2.22
2022-08-05T15:30:53.047Z,2.28
2022-08-05T15:32:28.801Z,2.33
2022-08-05T15:34:18.673Z,2.30
2022-08-05T15:35:54.954Z,2.38
2022-08-05T15:38:32.953Z,2.10
2022-08-05T15:40:58.491Z,2.10
2022-08-05T15:41:21.538Z,2.20
2022-08-05T15:43:01.632Z,2.08
2022-08-05T15:44:44.947Z,2.15
2022-08-05T15:46:20.141Z,2.30
2022-08-05T15:47:54.388Z,2.13
2022-08-05T15:49:48.094Z,2.22
2022-08-05T15:52:12.689Z,2.28
2022-08-05T15:53:20.117Z,2.30
2022-08-05T15:54:55.723Z,2.17
2022-08-05T15:56:30.640Z,2.20
2022-08-05T15:58:03.863Z,1.95
2022-08-05T15:59:38.109Z,2.00
2022-08-05T16:01:17.334Z,1.90
2022-08-05T16:02:51.120Z,2.10
2022-08-05T16:04:25.409Z,2.20
2022-08-05T16:05:58.910Z,2.00
2022-08-05T16:07:32.001Z,2.00
2022-08-05T16:09:05.562Z,2.20
2022-08-05T16:10:42.711Z,2.47
2022-08-05T16:12:16.715Z,2.10
2022-08-05T16:13:52.837Z,2.75
2022-08-05T16:15:32.655Z,1.95
2022-08-05T16:17:09.456Z,2.40
2022-08-05T16:18:52.503Z,2.22
2022-08-05T16:22:02.996Z,2.30
2022-08-05T16:23:53.796Z,2.20
2022-08-05T16:25:34.191Z,2.10
2022-08-05T16:27:09.204Z,2.00
2022-08-05T16:28:42.191Z,2.20
2022-08-05T16:30:23.555Z,2.10
2022-08-05T16:31:59.808Z,2.30
2022-08-05T16:33:41.384Z,2.40
2022-08-05T16:35:15.982Z,2.17
2022-08-05T16:36:51.232Z,2.17
2022-08-05T16:38:28.012Z,2.60
2022-08-05T16:40:05.853Z,2.33
2022-08-05T16:42:14.199Z,2.30
2022-08-05T16:43:36.119Z,2.30
2022-08-05T16:46:03.520Z,2.30
2022-08-05T16:47:04.068Z,2.20
2022-08-05T16:48:39.381Z,2.65
2022-08-05T16:50:12.896Z,2.50
2022-08-05T16:51:51.389Z,2.72
2022-08-05T16:54:02.025Z,2.50
2022-08-05T16:55:23.128Z,2.60
2022-08-05T16:56:57.766Z,3.15
2022-08-05T16:58:31.379Z,2.55
2022-08-05T17:00:10.598Z,2.67
2022-08-05T17:01:54.695Z,2.92
2022-08-05T17:03:28.957Z,2.60
2022-08-05T17:05:05.951Z,2.78
2022-08-05T17:06:39.326Z,2.70
2022-08-05T17:08:15.244Z,2.40
2022-08-05T17:10:09.061Z,2.40
2022-08-05T17:11:48.403Z,2.40
2022-08-05T17:13:37.253Z,2.70
2022-08-05T17:15:15.513Z,2.75
2022-08-05T17:16:50.123Z,2.67
2022-08-05T17:18:26.934Z,2.47
2022-08-05T17:20:00.213Z,2.65
2022-08-05T17:21:36.200Z,2.65
2022-08-05T17:23:09.900Z,2.40
2022-08-05T17:25:03.393Z,2.47
2022-08-05T17:26:55.667Z,2.47
2022-08-05T17:28:28.861Z,2.70
2022-08-05T17:30:02.767Z,2.72
2022-08-05T17:31:56.679Z,2.30
2022-08-05T17:33:29.185Z,2.40
2022-08-05T17:35:12.678Z,2.33
2022-08-05T17:36:50.091Z,2.90
2022-08-05T17:38:23.039Z,2.42
2022-08-05T17:42:19.961Z,2.83
2022-08-05T17:43:46.474Z,2.63
2022-08-05T17:45:21.181Z,2.60
2022-08-05T17:46:55.003Z,2.50
2022-08-05T17:48:28.053Z,2.50
2022-08-05T17:50:10.200Z,2.72
2022-08-05T17:51:44.489Z,2.97
2022-08-05T17:53:20.947Z,2.80
2022-08-05T17:54:53.016Z,2.88
2022-08-05T17:56:28.819Z,2.80
2022-08-05T17:58:02.140Z,2.70
2022-08-05T17:59:35.237Z,2.65
2022-08-05T18:01:09.906Z,2.85
2022-08-05T18:02:43.199Z,3.17
2022-08-05T18:04:20.994Z,2.65
2022-08-05T18:05:54.817Z,2.70
2022-08-05T18:07:42.052Z,2.97
2022-08-05T18:09:16.967Z,2.88
2022-08-05T18:10:50.241Z,2.60
2022-08-05T18:12:24.243Z,2.97
2022-08-05T18:13:59.544Z,3.10
2022-08-05T18:15:34.462Z,3.00
2022-08-05T18:18:01.259Z,2.80
2022-08-05T18:19:03.235Z,2.80
2022-08-05T18:20:36.349Z,2.80
2022-08-05T18:22:11.580Z,3.38
2022-08-05T18:23:53.909Z,3.00
2022-08-05T18:25:33.121Z,2.90
2022-08-05T18:27:12.651Z,2.90
2022-08-05T18:28:54.796Z,2.97
2022-08-05T18:30:28.933Z,2.90
2022-08-05T18:32:02.914Z,2.90
2022-08-05T18:33:37.571Z,2.95
2022-08-05T18:35:20.481Z,2.95
2022-08-05T18:37:33.720Z,2.83
2022-08-05T18:39:22.292Z,3.03
2022-08-05T18:41:58.227Z,3.30
2022-08-05T18:42:54.645Z,3.25
2022-08-05T18:44:34.737Z,3.50
2022-08-05T18:46:09.595Z,3.22
2022-08-05T18:47:43.023Z,3.60
2022-08-05T18:49:44.524Z,3.45
2022-08-05T18:52:04.972Z,3.53
2022-08-05T18:53:45.767Z,3.33
2022-08-05T18:55:23.615Z,3.20
2022-08-05T18:57:00.845Z,3.75
2022-08-05T18:58:36.205Z,3.35
2022-08-05T19:00:20.598Z,3.40
2022-08-05T19:01:58.305Z,3.50
2022-08-05T19:03:53.100Z,3.45
2022-08-05T19:06:13.250Z,3.65
2022-08-05T19:07:18.501Z,3.47
2022-08-05T19:08:51.602Z,3.30
2022-08-05T19:10:27.867Z,3.33
2022-08-05T19:12:03.021Z,3.45
2022-08-05T19:13:36.880Z,3.20
2022-08-05T19:15:25.251Z,3.58
2022-08-05T19:17:06.337Z,3.40
2022-08-05T19:18:40.827Z,3.50
2022-08-05T19:21:48.544Z,3.25
2022-08-05T19:24:05.544Z,3.78
2022-08-05T19:25:29.594Z,3.38
2022-08-05T19:27:05.608Z,3.20
2022-08-05T19:28:41.587Z,3.35
2022-08-05T19:30:16.384Z,3.70
2022-08-05T19:31:53.834Z,3.55
2022-08-05T19:33:36.044Z,4.05
2022-08-05T19:35:10.878Z,3.63
2022-08-05T19:36:43.941Z,3.72
2022-08-05T19:38:24.451Z,3.90
2022-08-05T19:40:00.375Z,3.97
2022-08-05T19:42:05.565Z,4.35
2022-08-05T19:44:06.164Z,3.70
2022-08-05T19:45:21.254Z,4.20
2022-08-05T19:46:58.726Z,3.83
2022-08-05T19:48:32.075Z,4.57
2022-08-05T19:50:10.672Z,4.30
2022-08-05T19:52:08.391Z,4.00
2022-08-05T19:54:03.466Z,4.07
2022-08-05T19:56:14.733Z,4.38
2022-08-05T19:57:48.878Z,4.68
2022-08-05T20:01:13.389Z,4.82
2022-08-05T20:02:47.016Z,4.70
2022-08-05T20:04:21.162Z,4.85
2022-08-05T20:05:56.826Z,4.90
2022-08-05T20:07:48.173Z,4.95
2022-08-05T20:09:22.512Z,5.30
2022-08-05T20:10:58.898Z,5.35
2022-08-05T20:12:32.064Z,5.22
2022-08-05T20:15:56.904Z,5.68
2022-08-05T20:17:30.794Z,5.20
2022-08-05T20:19:09.345Z,5.22
2022-08-05T20:20:45.600Z,5.50
2022-08-05T20:22:21.873Z,5.60
2022-08-05T20:23:59.988Z,5.70
2022-08-05T20:25:40.188Z,5.70
2022-08-05T20:27:13.317Z,5.57
2022-08-05T20:28:51.426Z,5.90
2022-08-05T20:30:27.466Z,5.80
2022-08-05T20:32:01.841Z,6.40
2022-08-05T20:33:35.868Z,6.20
2022-08-05T20:35:09.409Z,6.25
2022-08-05T20:36:43.477Z,6.30
2022-08-05T20:38:20.253Z,5.82
2022-08-05T20:39:59.867Z,6.60
2022-08-05T20:41:44.290Z,6.47
2022-08-05T20:43:33.256Z,6.55
2022-08-05T20:45:11.981Z,6.10
2022-08-05T20:46:46.437Z,6.50
2022-08-05T20:48:21.720Z,6.38
2022-08-05T20:49:57.960Z,6.30
2022-08-05T20:51:32.099Z,6.60
2022-08-05T20:53:05.246Z,6.20
2022-08-05T20:54:59.764Z,6.07
2022-08-05T20:56:42.810Z,6.10
2022-08-05T20:58:15.862Z,5.85
2022-08-05T21:00:21.200Z,5.85
2022-08-05T21:01:42.095Z,5.43
2022-08-05T21:03:16.630Z,6.28
2022-08-05T21:04:54.934Z,6.30
2022-08-05T21:06:30.533Z,6.35
2022-08-05T21:12:07.338Z,7.68
2022-08-05T21:13:26.396Z,8.70
2022-08-05T21:15:10.562Z,8.30
2022-08-05T21:16:43.689Z,9.60
2022-08-05T21:18:16.973Z,9.68
2022-08-05T21:19:51.984Z,9.45
2022-08-05T21:21:26.655Z,9.07
2022-08-05T21:23:13.511Z,9.82
2022-08-05T21:24:48.881Z,9.43
2022-08-05T21:26:26.382Z,10.80
2022-08-05T21:28:03.900Z,10.02
2022-08-05T21:29:40.684Z,9.98
2022-08-05T21:31:14.150Z,9.77
2022-08-05T21:32:49.828Z,9.80
2022-08-05T21:34:23.923Z,8.95
2022-08-05T21:35:58.678Z,9.25
2022-08-05T21:37:41.224Z,9.23
2022-08-05T21:39:16.843Z,9.65
2022-08-05T21:40:50.419Z,9.25
2022-08-05T21:44:17.497Z,8.35
2022-08-05T21:46:00.644Z,9.18
2022-08-05T21:47:57.051Z,10.07
2022-08-05T21:49:48.180Z,10.38
2022-08-05T21:51:25.073Z,10.00
2022-08-05T21:53:18.827Z,10.30
2022-08-05T21:54:54.921Z,10.68
2022-08-05T21:56:31.356Z,10.50
2022-08-05T21:58:04.642Z,10.13
2022-08-05T22:00:01.581Z,9.77
2022-08-05T22:01:35.335Z,10.27
2022-08-05T22:03:10.007Z,9.90
2022-08-05T22:04:43.354Z,9.80
2022-08-05T22:08:02.081Z,9.45
2022-08-05T22:09:46.365Z,10.52
2022-08-05T22:11:34.439Z,9.90
2022-08-05T22:14:06.568Z,10.07
2022-08-05T22:15:01.804Z,10.38
2022-08-05T22:16:51.789Z,10.02
2022-08-05T22:18:26.925Z,10.00
2022-08-05T22:20:13.867Z,9.98
2022-08-05T22:21:49.414Z,11.15
2022-08-05T22:24:01.203Z,10.90
2022-08-05T22:26:09.767Z,10.35
2022-08-05T22:28:09.868Z,10.95
2022-08-05T22:29:38.463Z,10.18
2022-08-05T22:31:11.651Z,11.73
2022-08-05T22:34:25.673Z,11.30
2022-08-05T22:36:02.076Z,11.18
2022-08-05T22:37:58.478Z,11.63
2022-08-05T22:39:33.696Z,11.10
2022-08-05T22:41:09.821Z,10.70
2022-08-05T22:42:45.821Z,10.55
2022-08-05T22:44:31.322Z,10.27
2022-08-05T22:47:49.898Z,9.27
2022-08-05T22:50:17.972Z,10.23
2022-08-05T22:51:23.164Z,9.52
2022-08-05T22:53:16.594Z,10.18
2022-08-05T22:54:49.910Z,9.98
2022-08-05T22:58:04.915Z,10.10
2022-08-05T22:59:44.176Z,9.95
2022-08-05T23:01:21.794Z,10.18
2022-08-05T23:03:15.076Z,9.85
2022-08-05T23:04:52.091Z,10.77
2022-08-05T23:06:26.311Z,10.57
2022-08-05T23:07:59.783Z,11.05
2022-08-05T23:11:27.116Z,9.75
2022-08-05T23:13:03.723Z,10.35
2022-08-05T23:14:36.919Z,10.02
2022-08-05T23:16:11.159Z,10.02
2022-08-05T23:18:01.601Z,9.88
2022-08-05T23:19:38.570Z,9.63
2022-08-05T23:21:19.760Z,9.32
2022-08-05T23:22:55.568Z,10.18
2022-08-05T23:24:29.478Z,10.10
2022-08-05T23:26:03.324Z,9.40
2022-08-05T23:29:30.125Z,8.65
2022-08-05T23:31:17.213Z,8.52
2022-08-05T23:32:50.999Z,8.63
2022-08-05T23:34:24.588Z,8.18
2022-08-05T23:35:57.952Z,7.30
2022-08-05T23:37:34.247Z,6.82
2022-08-05T23:39:10.071Z,6.68
2022-08-05T23:40:50.624Z,6.85
2022-08-05T23:42:29.278Z,6.30
2022-08-05T23:44:06.410Z,6.05
2022-08-05T23:45:42.044Z,6.25
2022-08-05T23:47:16.253Z,5.90
2022-08-05T23:48:59.943Z,6.82
2022-08-05T23:50:34.459Z,6.53
2022-08-05T23:52:25.894Z,5.90
2022-08-05T23:54:01.123Z,5.70
2022-08-05T23:55:34.416Z,5.47
2022-08-05T23:58:40.307Z,5.05
